Time;durP1;ratioP1;P1;durP2;ratioP2;P2;SDS_P1;SDS_P2;PMS_P1;PMS_P2;Temp;Humidity;BMP_temperature;BMP_pressure;BME280_temperature;BME280_humidity;BME280_pressure;Samples;Min_cycle;Max_cycle;Signal;HPM_P1;HPM_P2
2021/09/09 07:39:54;;;;;;;28.15;22.13;;;;;;;22.52;59.53;100916.22;5465268;23;123242;-92
2021/09/09 07:42:20;;;;;;;28.90;23.65;;;;;;;22.79;58.94;100956.25;4740421;29;124701;-92
2021/09/09 07:44:47;;;;;;;32.15;23.67;;;;;;;22.61;58.95;100918.63;4747175;29;121211;-94
2021/09/09 07:47:18;;;;;;;28.57;22.60;;;;;;;22.71;59.38;100915.44;4734037;29;122417;-92
2021/09/09 07:49:47;;;;;;;25.02;21.45;;;;;;;22.75;58.60;100918.72;4717866;29;121463;-92
2021/09/09 07:52:13;;;;;;;27.92;21.80;;;;;;;23.08;58.34;100946.22;4732141;29;123927;-93
2021/09/09 07:54:40;;;;;;;28.58;22.23;;;;;;;23.17;58.67;100959.78;4761486;29;122110;-94
2021/09/09 07:57:06;;;;;;;28.58;22.98;;;;;;;23.24;58.87;100948.00;4744684;29;121006;-94
2021/09/09 07:59:32;;;;;;;28.47;23.00;;;;;;;23.13;58.71;100919.44;4753016;29;124035;-93
2021/09/09 08:01:58;;;;;;;28.52;21.73;;;;;;;23.35;58.82;100932.31;4734025;29;124561;-93
2021/09/09 08:04:25;;;;;;;29.23;20.50;;;;;;;23.28;58.87;100898.06;4752819;29;121080;-95
2021/09/09 08:06:51;;;;;;;29.15;20.05;;;;;;;23.62;58.83;100931.09;4747692;29;123132;-94
2021/09/09 08:09:24;;;;;;;24.50;18.85;;;;;;;23.53;58.51;100909.09;4749740;29;124579;-92
2021/09/09 08:11:53;;;;;;;25.70;20.30;;;;;;;23.82;58.85;100929.72;4766963;29;123700;-93
2021/09/09 08:14:21;;;;;;;22.55;17.85;;;;;;;23.76;58.16;100907.44;4728336;29;121937;-92
2021/09/09 08:16:48;;;;;;;24.13;19.37;;;;;;;24.31;57.63;100962.97;4727262;29;122246;-95
2021/09/09 08:19:14;;;;;;;25.88;19.90;;;;;;;24.02;57.04;100908.72;4740492;29;123823;-93
2021/09/09 08:21:43;;;;;;;24.80;20.10;;;;;;;24.28;56.65;100925.56;4742494;29;124400;-93
2021/09/09 08:24:10;;;;;;;25.20;18.88;;;;;;;24.23;56.94;100906.78;4762505;29;122348;-92
2021/09/09 08:26:38;;;;;;;25.63;19.53;;;;;;;24.38;56.87;100909.81;4746372;29;123663;-92
2021/09/09 08:29:05;;;;;;;21.27;17.60;;;;;;;24.47;56.00;100905.81;4731038;29;125222;-94
2021/09/09 08:31:34;;;;;;;23.90;19.48;;;;;;;24.60;55.72;100910.59;4722142;29;121543;-92
2021/09/09 08:34:06;;;;;;;23.67;18.50;;;;;;;24.68;55.44;100911.47;4730103;29;124367;-92
2021/09/09 08:36:36;;;;;;;25.13;20.20;;;;;;;24.78;55.76;100909.69;4743041;29;122000;-92
2021/09/09 08:39:13;;;;;;;24.50;19.60;;;;;;;24.93;55.67;100909.88;4714676;29;124085;-93
2021/09/09 08:41:42;;;;;;;24.85;19.20;;;;;;;25.23;55.36;100939.56;4761913;29;123294;-92
2021/09/09 08:44:16;;;;;;;24.07;19.27;;;;;;;25.03;55.92;100899.69;4727770;29;121655;-92
2021/09/09 08:46:53;;;;;;;24.03;20.00;;;;;;;25.13;55.54;100908.41;4737261;29;124354;-92
2021/09/09 08:49:28;;;;;;;21.50;19.17;;;;;;;25.16;55.12;100896.09;4748439;29;124047;-92
2021/09/09 08:52:11;;;;;;;23.55;17.40;;;;;;;25.07;56.17;100897.28;4762036;29;121310;-94
2021/09/09 08:54:42;;;;;;;25.60;19.63;;;;;;;25.04;56.00;100898.41;4728923;29;124076;-92
2021/09/09 08:57:08;;;;;;;21.55;17.13;;;;;;;25.17;56.03;100922.09;4744520;29;121508;-91
2021/09/09 08:59:39;;;;;;;24.35;16.42;;;;;;;25.03;56.06;100908.13;4730615;29;123941;-92
2021/09/09 09:02:10;;;;;;;27.35;18.23;;;;;;;25.37;56.10;100949.44;4745439;29;124953;-93
2021/09/09 09:04:39;;;;;;;23.55;17.55;;;;;;;25.04;55.90;100903.25;4750637;29;121182;-92
2021/09/09 09:07:13;;;;;;;25.88;17.58;;;;;;;25.01;56.36;100899.50;4728087;29;122982;-94
2021/09/09 09:09:46;;;;;;;22.08;17.75;;;;;;;25.14;55.80;100909.16;4748145;29;124903;-94
2021/09/09 09:12:40;;;;;;;23.98;18.90;;;;;;;24.98;55.88;100894.94;4742419;29;121102;-91
2021/09/09 09:15:19;;;;;;;22.02;16.08;;;;;;;24.98;56.16;100886.53;4762477;29;122447;-93
2021/09/09 09:18:01;;;;;;;25.42;17.90;;;;;;;25.01;55.78;100893.13;4756056;29;121181;-93
2021/09/09 09:20:55;;;;;;;23.17;16.35;;;;;;;25.01;56.01;100885.47;4740143;29;121295;-92
2021/09/09 09:23:30;;;;;;;20.55;15.65;;;;;;;25.35;55.28;100935.19;4730122;29;121909;-93
2021/09/09 09:26:04;;;;;;;19.88;16.27;;;;;;;25.01;55.43;100877.03;4745642;29;121180;-94
2021/09/09 09:28:52;;;;;;;22.13;16.00;;;;;;;25.48;55.03;100945.56;4722839;29;122602;-93
2021/09/09 09:31:26;;;;;;;24.15;18.17;;;;;;;25.47;54.79;100942.00;4723806;29;124159;-92
2021/09/09 09:34:13;;;;;;;22.25;15.95;;;;;;;25.12;54.39;100875.28;4735980;29;121587;-92
2021/09/09 09:36:48;;;;;;;19.77;15.80;;;;;;;25.14;54.77;100887.47;4748736;29;123761;-92
2021/09/09 09:39:22;;;;;;;20.63;15.82;;;;;;;25.14;55.13;100872.69;4708300;29;124811;-92
2021/09/09 09:41:54;;;;;;;20.77;16.17;;;;;;;25.57;54.74;100931.81;4763369;29;122346;-94
2021/09/09 09:44:30;;;;;;;21.42;16.10;;;;;;;25.25;54.52;100883.63;4773585;29;124951;-92
2021/09/09 09:47:33;;;;;;;19.25;15.07;;;;;;;25.61;54.40;100932.22;4735378;29;121231;-92
2021/09/09 09:50:16;;;;;;;17.92;14.02;;;;;;;25.24;54.17;100877.25;4761703;29;121340;-93
2021/09/09 09:52:42;;;;;;;16.95;13.77;;;;;;;25.29;54.28;100884.78;4756658;29;124836;-92
2021/09/09 09:55:10;;;;;;;17.77;13.55;;;;;;;25.27;53.79;100864.16;4742281;29;122153;-92
2021/09/09 09:57:51;;;;;;;18.85;13.57;;;;;;;25.35;53.92;100887.44;4740566;29;123175;-93
2021/09/09 10:00:20;;;;;;;19.13;14.30;;;;;;;25.38;53.27;100880.75;4729234;29;125690;-95
2021/09/09 10:02:55;;;;;;;16.35;12.68;;;;;;;25.40;52.94;100870.47;4746969;29;121769;-92
2021/09/09 10:05:22;;;;;;;18.70;13.45;;;;;;;25.42;52.23;100872.72;4733184;29;124409;-93
2021/09/09 10:07:51;;;;;;;17.30;12.60;;;;;;;25.66;53.01;100899.66;4727339;29;121245;-95
2021/09/09 10:10:17;;;;;;;20.58;13.10;;;;;;;25.80;52.64;100917.97;4719997;29;123886;-93
2021/09/09 10:12:49;;;;;;;15.27;11.77;;;;;;;25.46;51.98;100863.94;4724794;29;124817;-94
2021/09/09 10:15:23;;;;;;;17.25;12.75;;;;;;;25.55;52.06;100874.66;4745850;29;121925;-92
2021/09/09 10:17:54;;;;;;;19.30;13.23;;;;;;;25.54;52.44;100865.50;4729474;29;123560;-95
2021/09/09 10:20:44;;;;;;;15.57;12.07;;;;;;;25.69;51.93;100882.47;4762951;29;123911;-94
2021/09/09 10:40:59;;;;;;;16.15;11.20;;;;;;;25.72;50.18;100851.78;5336654;23;123430;-96
2021/09/09 10:43:59;;;;;;;13.07;10.77;;;;;;;25.84;51.14;100878.28;4785617;29;124913;-94
2021/09/09 10:47:02;;;;;;;14.60;10.95;;;;;;;25.88;50.52;100870.22;4726594;29;121452;-94
2021/09/09 10:49:35;;;;;;;17.60;10.75;;;;;;;26.16;50.50;100906.72;4726943;29;122870;-96
2021/09/09 10:58:27;;;;;;;12.88;10.77;;;;;;;26.18;50.14;100894.94;5151217;23;123415;-94
2021/09/09 11:01:02;;;;;;;14.93;10.80;;;;;;;25.99;49.89;100859.41;4789574;29;121252;-92
2021/09/09 11:03:54;;;;;;;13.15;10.40;;;;;;;25.87;49.98;100835.00;4741647;29;123360;-92
2021/09/09 11:06:29;;;;;;;14.82;10.75;;;;;;;25.87;50.38;100830.16;4796541;29;122248;-92
2021/09/09 11:08:58;;;;;;;16.88;10.82;;;;;;;25.86;50.24;100828.66;4788002;29;121137;-93
2021/09/09 11:11:33;;;;;;;12.77;10.25;;;;;;;25.85;49.91;100827.13;4779471;29;123572;-93
2021/09/09 11:14:09;;;;;;;14.35;11.13;;;;;;;26.27;49.54;100883.94;4754951;29;124689;-94
2021/09/09 11:16:45;;;;;;;13.02;10.32;;;;;;;25.89;48.63;100821.16;4748687;29;121182;-93
2021/09/09 11:19:19;;;;;;;15.18;10.27;;;;;;;25.90;48.77;100817.03;4772479;29;123936;-95
2021/09/09 11:21:46;;;;;;;12.13;10.13;;;;;;;26.00;48.43;100826.44;4758044;29;121163;-94
2021/09/09 11:24:20;;;;;;;14.23;10.55;;;;;;;26.00;48.21;100810.31;4782821;29;123684;-93
2021/09/09 11:26:50;;;;;;;12.88;10.02;;;;;;;26.25;49.17;100846.41;4778092;29;123150;-92
2021/09/09 11:29:24;;;;;;;12.27;10.00;;;;;;;26.15;49.78;100837.75;4739860;29;121245;-93
2021/09/09 11:31:55;;;;;;;13.02;9.70;;;;;;;26.04;49.49;100809.25;4735326;29;123860;-94
2021/09/09 11:34:22;;;;;;;11.23;10.02;;;;;;;26.14;49.67;100830.63;4767250;29;124582;-95
2021/09/09 11:36:49;;;;;;;13.00;10.52;;;;;;;26.19;47.65;100838.16;4767176;29;121316;-95
2021/09/09 11:39:22;;;;;;;12.05;9.90;;;;;;;26.01;47.68;100799.84;4758160;29;124923;-95
2021/09/09 11:41:52;;;;;;;17.00;10.15;;;;;;;26.37;47.48;100846.88;4772128;29;122434;-93
2021/09/09 11:44:30;;;;;;;13.52;10.60;;;;;;;26.18;48.40;100808.53;4771990;29;123239;-95
2021/09/09 11:49:59;;;;;;;12.82;10.18;;;;;;;26.09;48.03;100789.41;5569720;23;124891;-94
2021/09/09 11:52:25;;;;;;;11.63;9.70;;;;;;;26.29;47.95;100811.00;4769760;29;124341;-93
2021/09/09 11:54:51;;;;;;;12.30;9.90;;;;;;;26.17;47.58;100781.72;4772048;29;124598;-96
2021/09/09 11:57:18;;;;;;;12.02;9.45;;;;;;;26.24;47.86;100799.91;4779846;29;122133;-93
2021/09/09 11:59:58;;;;;;;15.70;10.45;;;;;;;26.31;48.02;100805.59;4790738;29;123442;-94
2021/09/09 12:02:30;;;;;;;15.43;9.75;;;;;;;26.26;48.57;100798.06;4769552;29;121782;-93
2021/09/09 12:04:58;;;;;;;12.57;10.32;;;;;;;26.23;48.12;100790.72;4770524;29;123875;-95
2021/09/09 12:07:29;;;;;;;12.35;9.82;;;;;;;26.25;48.60;100796.53;4769358;29;124904;-93
2021/09/09 12:10:06;;;;;;;16.10;10.48;;;;;;;26.60;47.24;100848.44;4768895;29;121239;-94
2021/09/09 12:12:34;;;;;;;14.27;9.98;;;;;;;26.57;48.07;100837.53;4767615;29;123834;-93
2021/09/09 12:15:08;;;;;;;12.25;10.27;;;;;;;26.26;48.62;100783.25;4784658;29;124777;-94
2021/09/09 12:17:35;;;;;;;13.60;9.45;;;;;;;26.39;48.88;100790.81;4779990;29;122040;-93
2021/09/09 12:20:07;;;;;;;14.57;10.48;;;;;;;26.44;48.76;100801.13;4775825;29;123441;-93
2021/09/09 12:22:53;;;;;;;14.35;10.45;;;;;;;26.58;47.13;100819.34;4784715;29;124942;-94
2021/09/09 12:25:25;;;;;;;11.82;9.98;;;;;;;26.60;47.78;100817.47;4766149;29;123456;-94
2021/09/09 12:28:01;;;;;;;14.75;9.75;;;;;;;26.47;48.36;100794.38;4764239;29;124757;-96
2021/09/09 12:30:34;;;;;;;14.45;10.15;;;;;;;26.61;49.00;100815.41;4776117;29;121159;-94
2021/09/09 12:33:03;;;;;;;13.65;10.52;;;;;;;26.47;48.11;100789.50;4766305;29;123975;-94
2021/09/09 12:35:28;;;;;;;15.45;10.48;;;;;;;26.50;48.18;100810.91;4784686;29;124416;-94
2021/09/09 12:38:06;;;;;;;13.38;10.43;;;;;;;26.56;48.39;100813.53;4765614;29;121838;-92
2021/09/09 12:40:44;;;;;;;15.77;9.80;;;;;;;26.58;48.47;100810.91;4771951;29;123759;-92
2021/09/09 12:43:25;;;;;;;11.55;10.15;;;;;;;26.58;47.92;100813.72;4768139;29;124758;-95
2021/09/09 12:45:51;;;;;;;14.48;10.98;;;;;;;26.40;48.00;100779.00;4788539;29;121707;-94
2021/09/09 12:48:17;;;;;;;16.00;10.52;;;;;;;26.52;48.33;100796.28;4761768;29;125628;-94
2021/09/09 12:51:12;;;;;;;16.20;10.82;;;;;;;26.59;48.62;100803.97;4766262;29;122091;-93
2021/09/09 12:53:38;;;;;;;13.45;10.55;;;;;;;26.53;47.82;100783.72;4764109;29;124807;-91
2021/09/09 12:56:07;;;;;;;13.55;10.60;;;;;;;26.61;47.26;100796.47;4777676;29;125027;-94
2021/09/09 12:58:34;;;;;;;14.35;10.73;;;;;;;26.53;47.82;100787.28;4783210;29;121807;-93
2021/09/09 13:01:00;;;;;;;13.57;10.07;;;;;;;26.34;48.12;100752.34;4760746;29;123463;-92
2021/09/09 13:03:27;;;;;;;12.88;10.43;;;;;;;26.52;47.85;100779.41;4778005;29;124763;-93
2021/09/09 13:05:53;;;;;;;15.75;10.75;;;;;;;26.43;48.42;100768.69;4781149;29;122297;-92
2021/09/09 13:08:19;;;;;;;14.38;11.23;;;;;;;26.61;47.75;100796.47;4776990;29;123499;-92
2021/09/09 13:10:45;;;;;;;15.32;10.93;;;;;;;26.43;48.85;100763.06;4762617;29;122313;-91
2021/09/09 13:13:14;;;;;;;12.95;10.32;;;;;;;26.51;48.86;100766.66;4758910;29;123491;-93
2021/09/09 13:15:40;;;;;;;14.77;10.90;;;;;;;26.51;48.40;100766.66;4761010;29;125903;-94
2021/09/09 13:18:06;;;;;;;13.30;10.07;;;;;;;26.40;49.32;100738.88;4793355;29;122154;-94
2021/09/09 13:20:35;;;;;;;12.25;10.20;;;;;;;26.31;48.70;100726.84;4759418;29;123416;-94
2021/09/09 13:23:08;;;;;;;12.80;10.68;;;;;;;26.59;47.87;100773.03;4764830;29;124126;-94
2021/09/09 13:25:35;;;;;;;14.13;10.43;;;;;;;26.26;47.51;100719.34;4780165;29;121993;-92
2021/09/09 13:28:04;;;;;;;16.00;10.88;;;;;;;26.43;47.97;100734.94;4771047;29;123691;-96
2021/09/09 13:30:30;;;;;;;14.63;10.45;;;;;;;26.43;48.59;100738.50;4788625;29;123826;-93
2021/09/09 13:32:57;;;;;;;14.23;10.02;;;;;;;26.34;48.99;100722.19;4780832;29;124014;-91
2021/09/09 13:35:23;;;;;;;13.65;9.80;;;;;;;26.71;48.44;100762.16;4772111;29;124662;-96
2021/09/09 13:37:49;;;;;;;12.38;10.30;;;;;;;26.57;48.51;100742.66;4795697;29;121528;-94
2021/09/09 13:40:15;;;;;;;14.10;10.10;;;;;;;26.38;48.56;100719.00;4784211;29;123489;-95
2021/09/09 13:42:41;;;;;;;15.27;11.05;;;;;;;26.54;48.34;100740.22;4769973;28;123978;-95
2021/09/09 13:45:09;;;;;;;13.35;10.27;;;;;;;26.50;48.30;100725.75;4771839;28;121476;-95
2021/09/09 13:47:36;;;;;;;15.02;10.45;;;;;;;26.75;48.91;100756.94;4769678;29;123490;-95
2021/09/09 13:50:03;;;;;;;15.48;10.40;;;;;;;26.57;48.41;100730.66;4777167;29;124554;-96
2021/09/09 13:52:29;;;;;;;12.85;9.45;;;;;;;26.69;47.70;100745.84;4770871;29;123455;-94
2021/09/09 13:54:55;;;;;;;15.68;10.35;;;;;;;26.42;47.69;100702.50;4764472;29;124099;-96
2021/09/09 13:57:20;;;;;;;13.23;10.40;;;;;;;26.75;46.94;100746.41;4772258;29;122238;-96
2021/09/09 13:59:46;;;;;;;14.32;9.95;;;;;;;26.73;47.14;100743.38;4773168;29;123485;-96
2021/09/09 14:02:13;;;;;;;13.90;10.55;;;;;;;26.64;46.89;100729.91;4786414;29;124545;-96
2021/09/09 14:04:39;;;;;;;12.90;9.52;;;;;;;26.70;46.50;100733.25;4775045;29;121709;-96
2021/09/09 14:07:07;;;;;;;16.77;9.70;;;;;;;26.78;47.09;100736.09;4779117;29;123010;-95
2021/09/09 14:09:35;;;;;;;11.18;9.25;;;;;;;26.65;47.39;100716.56;4774943;28;124468;-96
2021/09/09 14:12:01;;;;;;;13.35;9.88;;;;;;;26.86;47.17;100751.66;4786559;29;121720;-96
2021/09/09 14:14:28;;;;;;;11.50;9.70;;;;;;;26.66;48.28;100713.19;4776163;29;124773;-96
2021/09/09 14:16:54;;;;;;;12.93;9.52;;;;;;;26.77;47.94;100728.97;4775123;28;121128;-94
2021/09/09 14:19:20;;;;;;;12.10;10.05;;;;;;;26.89;48.17;100738.50;4774530;29;123014;-95
2021/09/09 14:21:47;;;;;;;12.02;10.23;;;;;;;26.69;47.65;100719.75;4788611;29;124737;-95
2021/09/09 14:24:13;;;;;;;13.38;10.05;;;;;;;26.68;46.94;100707.75;4778775;29;122026;-96
2021/09/09 14:26:38;;;;;;;15.35;10.15;;;;;;;26.87;47.46;100743.97;4774497;28;123913;-95
2021/09/09 14:29:04;;;;;;;16.75;9.95;;;;;;;26.76;47.69;100735.91;4788935;29;123581;-94
2021/09/09 14:31:30;;;;;;;14.30;9.50;;;;;;;26.70;47.73;100718.44;4774015;28;121194;-95
2021/09/09 14:33:55;;;;;;;14.40;9.60;;;;;;;26.64;47.56;100712.28;4777663;28;123853;-96
2021/09/09 14:36:21;;;;;;;12.75;9.90;;;;;;;26.74;47.37;100730.84;4773498;29;121650;-96
2021/09/09 14:38:47;;;;;;;11.30;9.43;;;;;;;26.70;47.48;100730.44;4778848;29;123533;-94
2021/09/09 14:41:13;;;;;;;13.57;9.63;;;;;;;26.82;48.18;100739.28;4767661;29;126025;-95
2021/09/09 14:43:38;;;;;;;11.70;9.45;;;;;;;26.80;47.83;100751.09;4771258;29;121621;-94
2021/09/09 14:46:04;;;;;;;11.25;9.30;;;;;;;26.72;48.02;100735.50;4777239;29;122924;-95
2021/09/09 14:48:30;;;;;;;13.82;9.43;;;;;;;26.70;48.29;100732.50;4774048;28;124143;-96
2021/09/09 14:50:56;;;;;;;13.13;9.40;;;;;;;26.80;47.69;100745.47;4773713;29;123711;-96
2021/09/09 14:53:22;;;;;;;13.48;9.95;;;;;;;26.80;47.60;100748.28;4772814;29;123639;-95
2021/09/09 14:55:47;;;;;;;15.07;9.65;;;;;;;26.68;47.74;100732.31;4774653;29;123922;-96
2021/09/09 14:58:13;;;;;;;17.08;8.80;;;;;;;26.39;47.75;100695.94;4773890;29;123521;-96
2021/09/09 15:00:39;;;;;;;12.23;8.93;;;;;;;26.62;47.67;100721.28;4785796;29;123992;-96
2021/09/09 15:03:09;;;;;;;11.90;9.63;;;;;;;26.77;47.66;100749.41;4775997;29;121631;-96
2021/09/09 15:05:36;;;;;;;12.60;8.98;;;;;;;26.65;47.61;100728.59;4774478;28;123926;-95
2021/09/09 15:08:11;;;;;;;15.15;9.10;;;;;;;26.49;47.59;100701.75;4895027;23;124626;-96
2021/09/09 15:10:57;;;;;;;11.48;9.27;;;;;;;26.42;47.49;100688.44;4980307;23;122597;-96
2021/09/09 15:13:34;;;;;;;12.02;8.68;;;;;;;26.39;47.60;100681.88;4738978;29;122875;-96
2021/09/09 15:16:07;;;;;;;12.27;9.13;;;;;;;26.39;47.74;100675.50;4770089;29;124508;-96
2021/09/09 15:18:34;;;;;;;14.50;9.73;;;;;;;26.64;47.24;100713.03;4779285;29;121230;-96
2021/09/09 15:21:00;;;;;;;12.75;9.05;;;;;;;26.41;47.57;100672.88;4756872;29;124415;-96
2021/09/09 15:23:29;;;;;;;13.55;9.57;;;;;;;26.43;47.73;100692.75;4774715;29;121331;-96
2021/09/09 15:25:55;;;;;;;11.88;8.13;;;;;;;26.64;47.46;100717.88;4773808;29;125428;-96
2021/09/09 15:28:21;;;;;;;14.68;9.48;;;;;;;26.33;47.30;100669.31;4754864;29;124480;-96
2021/09/09 15:30:48;;;;;;;14.98;9.18;;;;;;;26.31;47.09;100687.47;4770854;29;121814;-96
2021/09/09 15:33:17;;;;;;;15.70;9.52;;;;;;;26.54;47.08;100712.09;4776534;29;123596;-96
2021/09/09 15:35:44;;;;;;;12.82;8.80;;;;;;;26.35;47.14;100683.56;4762640;29;124565;-96
2021/09/09 15:38:13;;;;;;;14.15;8.18;;;;;;;26.49;47.73;100699.69;4757874;29;121146;-96
2021/09/09 15:40:41;;;;;;;15.98;9.43;;;;;;;26.36;46.45;100679.44;4760220;29;123728;-96
2021/09/09 15:43:17;;;;;;;12.07;8.93;;;;;;;26.69;47.20;100728.19;4761120;29;121460;-96
2021/09/09 15:48:56;;;;;;;14.55;8.75;;;;;;;26.29;47.84;100690.09;5246986;23;123933;-96
2021/09/09 15:51:23;;;;;;;11.25;8.93;;;;;;;26.25;47.71;100686.16;4772729;29;121193;-96
2021/09/09 15:53:51;;;;;;;13.50;9.05;;;;;;;26.46;47.29;100708.50;4767326;29;123701;-96
2021/09/09 15:56:26;;;;;;;14.05;8.75;;;;;;;26.16;47.38;100659.34;4754453;29;124902;-96
2021/09/09 15:58:54;;;;;;;16.55;9.13;;;;;;;26.24;47.66;100682.59;4758400;29;121065;-96
2021/09/09 16:01:24;;;;;;;18.30;9.43;;;;;;;26.21;48.06;100660.47;4763528;29;123483;-96
2021/09/09 16:03:51;;;;;;;17.98;9.43;;;;;;;26.25;48.13;100680.53;4771023;29;121621;-96
2021/09/09 16:06:24;;;;;;;14.63;8.45;;;;;;;26.18;48.24;100673.59;4775369;29;123787;-96
2021/09/09 17:44:42;;;;;;;23.27;13.00;;;;;;;24.77;52.76;100692.19;5813112;23;123842;-96
2021/09/09 20:07:03;;;;;;;23.08;16.38;;;;;;;22.32;58.32;100774.97;5723663;23;123830;-94
2021/09/09 20:25:56;;;;;;;22.08;16.73;;;;;;;21.94;59.04;100767.84;4751395;29;120931;-94
